Terminal Aerodrome Forecast
Issued by NWS Goodland, KS

Home | Current Version | Previous Version | Text Only | Print | Product List | Glossary On
Versions: 1 2 3 4 5 6 7 8 9 10 11 12 13
000
FTUS43 KGLD 271720
TAFGLD
TAF
KGLD 271720Z 2718/2818 34023G30KT P6SM BKN070
     FM280100 35015KT P6SM SCT100
     FM280400 28008KT P6SM SKC=

USA.gov is the U.S. government's official web portal to all federal, state and local government web resources and services.